Airfield :
LOGIN :

Register | Disclaimer

   EN    FR    IT 

 










Legend :    VFR   Marginal VFR   IFR   Intensive IFR   Very Intensive IFR
Visi :
Ceiling :
>= 8 km
>= 3000ft
5 to 8 km
1000 to 3000 ft
1500m to 5 km
500 to 1000 ft
800 to 1500m
200 to 500 ft
< 800m
< 200 ft
Symbols :   Thunderstorms  Fog  Heavy snow  Heavy precipitations  Wind > 20 kt
SIGMETs :     Misc.  Thunderstorms  Icing  Turbulence  Mountain Waves  Volcanic Ashes







- Airport Elevation : 359 ft
- IATA code : BVA
- Download approach charts


LFOB - Beauvais

CURRENT METAR :
  • 230500Z AUTO 20021KT 9999 FEW036 SCT092 BKN120 14/07 Q0997 BECMG 19020G30KT

EXPIRED METARs :
  • 230430Z AUTO 20021KT CAVOK 13/07 Q0997 BECMG 19020G30KT
  • 230400Z AUTO 19018G29KT CAVOK 13/06 Q0997 NOSIG
  • 230330Z AUTO 19019KT CAVOK 12/06 Q0997 BECMG 19020G30KT
  • 230300Z AUTO 19019KT CAVOK 13/06 Q0998 BECMG 19020G30KT
  • 230230Z AUTO 19017KT CAVOK 13/06 Q0998 BECMG 19020G30KT

TAF TAF LFOB
Valid from the 23 at 00:00 until the 24 at 00:00 UTC


222300Z 2300/2324 19020G30KT CAVOK
TEMPO 2310/2316 4000 RA BKN013 BKN020TCU
BECMG 2312/2314 26008KT
BECMG 2322/2324 18010KT
ATIS : +33 3 44 11 49 28
No reported NOTAMs for that airfield.
2 SIGMETs reported for the Paris FIR (LFFF) :
 
Severe turbulence
LFFF SIGMET 2 VALID 230500/230900 LFPW
LFFF PARIS FIR/UIR SEV TURB OBS SE OF LINE N4700 E00430 - N4630 E00400 SFC/FL080 STNR NC=
Severe turbulence
LFFF SIGMET 1 VALID 230300/230700 LFPW
LFFF PARIS FIR/UIR SEV TURB FCST NW OF LINE N5100 E00245 - N4800 W00015 SFC/FL060 MOV NE 30KT NC=



MET'MAP, your aeronautical weather chart ! - Copyright ORBIFLY December 2007 - Disclaimer

ORBIFLY MET'MAP TEAM :

Programming & Development : Alexandra Zaïnal
Concept & Development : Baudouin d'Aumeries
Co-Development & Prog : Marc-Olivier Méhu
Technical & hardware support : Manuel Goepfert

Contact : metmap@orbifly.com




SOURCES & CREDITS :

   NOAA